sensor_id;sensor_type;location;lat;lon;timestamp;temperature;humidity
9167;DHT22;4618;48.818;9.088;2023-02-28T00:00:29;-3.20;99.90
9167;DHT22;4618;48.818;9.088;2023-02-28T00:02:55;-3.30;99.90
9167;DHT22;4618;48.818;9.088;2023-02-28T00:05:22;-3.40;99.90
9167;DHT22;4618;48.818;9.088;2023-02-28T00:07:49;-3.40;99.90
9167;DHT22;4618;48.818;9.088;2023-02-28T00:10:21;-3.40;99.90
9167;DHT22;4618;48.818;9.088;2023-02-28T00:12:52;-3.50;99.90
9167;DHT22;4618;48.818;9.088;2023-02-28T00:15:18;-3.40;1.00
9167;DHT22;4618;48.818;9.088;2023-02-28T00:17:44;-3.40;99.90
9167;DHT22;4618;48.818;9.088;2023-02-28T00:20:11;-3.50;1.00
9167;DHT22;4618;48.818;9.088;2023-02-28T00:22:43;-3.50;1.00
9167;DHT22;4618;48.818;9.088;2023-02-28T00:25:10;-3.60;1.00
9167;DHT22;4618;48.818;9.088;2023-02-28T00:27:37;-3.60;1.00
9167;DHT22;4618;48.818;9.088;2023-02-28T00:30:04;-3.60;1.00
9167;DHT22;4618;48.818;9.088;2023-02-28T00:32:30;-3.70;1.00
9167;DHT22;4618;48.818;9.088;2023-02-28T00:34:56;-3.80;1.00
9167;DHT22;4618;48.818;9.088;2023-02-28T00:37:22;-3.80;1.00
9167;DHT22;4618;48.818;9.088;2023-02-28T00:39:47;-3.90;1.00
9167;DHT22;4618;48.818;9.088;2023-02-28T00:42:13;-4.10;1.00
9167;DHT22;4618;48.818;9.088;2023-02-28T00:44:38;-4.20;1.00
9167;DHT22;4618;48.818;9.088;2023-02-28T00:47:04;-4.00;1.00
9167;DHT22;4618;48.818;9.088;2023-02-28T00:49:30;-3.80;1.00
9167;DHT22;4618;48.818;9.088;2023-02-28T00:51:56;-3.90;1.00
9167;DHT22;4618;48.818;9.088;2023-02-28T00:54:23;-3.90;1.00
9167;DHT22;4618;48.818;9.088;2023-02-28T00:56:49;-3.90;1.00
9167;DHT22;4618;48.818;9.088;2023-02-28T00:59:15;-3.80;1.00
9167;DHT22;4618;48.818;9.088;2023-02-28T01:01:42;-3.80;1.00
9167;DHT22;4618;48.818;9.088;2023-02-28T01:04:07;-3.80;1.00
9167;DHT22;4618;48.818;9.088;2023-02-28T01:06:33;-3.80;1.00
9167;DHT22;4618;48.818;9.088;2023-02-28T01:08:59;-4.00;1.00
9167;DHT22;4618;48.818;9.088;2023-02-28T01:11:25;-4.10;99.90
9167;DHT22;4618;48.818;9.088;2023-02-28T01:13:51;-4.10;99.90
9167;DHT22;4618;48.818;9.088;2023-02-28T01:16:17;-4.00;99.90
9167;DHT22;4618;48.818;9.088;2023-02-28T01:18:43;-4.10;99.90
9167;DHT22;4618;48.818;9.088;2023-02-28T01:21:15;-4.10;99.90
9167;DHT22;4618;48.818;9.088;2023-02-28T01:23:42;-4.00;99.90
9167;DHT22;4618;48.818;9.088;2023-02-28T01:26:22;-4.10;99.90
9167;DHT22;4618;48.818;9.088;2023-02-28T01:28:48;-4.10;1.00
9167;DHT22;4618;48.818;9.088;2023-02-28T01:31:14;-4.00;1.00
9167;DHT22;4618;48.818;9.088;2023-02-28T01:33:40;-4.00;1.00
9167;DHT22;4618;48.818;9.088;2023-02-28T01:36:11;-4.00;1.00
9167;DHT22;4618;48.818;9.088;2023-02-28T01:38:37;-4.00;1.00
9167;DHT22;4618;48.818;9.088;2023-02-28T01:41:03;-4.10;1.00
9167;DHT22;4618;48.818;9.088;2023-02-28T01:43:31;-4.10;99.90
9167;DHT22;4618;48.818;9.088;2023-02-28T01:45:58;-4.20;99.90
9167;DHT22;4618;48.818;9.088;2023-02-28T01:48:31;-4.20;99.90
9167;DHT22;4618;48.818;9.088;2023-02-28T01:51:03;-4.20;1.00
9167;DHT22;4618;48.818;9.088;2023-02-28T01:53:34;-4.20;1.00
9167;DHT22;4618;48.818;9.088;2023-02-28T01:56:04;-4.20;1.00
9167;DHT22;4618;48.818;9.088;2023-02-28T01:58:32;-4.20;1.00
9167;DHT22;4618;48.818;9.088;2023-02-28T02:00:57;-4.10;1.00
9167;DHT22;4618;48.818;9.088;2023-02-28T02:03:23;-4.20;1.00
9167;DHT22;4618;48.818;9.088;2023-02-28T02:05:49;-4.10;99.90
9167;DHT22;4618;48.818;9.088;2023-02-28T02:08:21;-4.10;99.90
9167;DHT22;4618;48.818;9.088;2023-02-28T02:10:57;-4.00;99.90
9167;DHT22;4618;48.818;9.088;2023-02-28T02:16:41;-3.90;99.90
9167;DHT22;4618;48.818;9.088;2023-02-28T02:19:21;-3.70;1.00
9167;DHT22;4618;48.818;9.088;2023-02-28T02:33:10;-3.80;99.90
9167;DHT22;4618;48.818;9.088;2023-02-28T02:40:56;-3.70;99.90
9167;DHT22;4618;48.818;9.088;2023-02-28T02:43:35;-3.70;99.90
9167;DHT22;4618;48.818;9.088;2023-02-28T02:46:24;-3.50;80.30
9167;DHT22;4618;48.818;9.088;2023-02-28T02:48:50;-3.40;1.00
9167;DHT22;4618;48.818;9.088;2023-02-28T02:51:20;-3.40;1.00
9167;DHT22;4618;48.818;9.088;2023-02-28T02:54:03;-3.30;1.00
9167;DHT22;4618;48.818;9.088;2023-02-28T02:56:32;-3.30;1.00
9167;DHT22;4618;48.818;9.088;2023-02-28T02:59:05;-3.20;99.90
9167;DHT22;4618;48.818;9.088;2023-02-28T03:01:34;-3.10;1.00
9167;DHT22;4618;48.818;9.088;2023-02-28T03:04:04;-3.10;99.90
9167;DHT22;4618;48.818;9.088;2023-02-28T03:06:31;-3.10;99.90
9167;DHT22;4618;48.818;9.088;2023-02-28T03:08:56;-2.90;99.90
9167;DHT22;4618;48.818;9.088;2023-02-28T03:11:22;-2.80;99.90
9167;DHT22;4618;48.818;9.088;2023-02-28T03:16:48;-2.70;92.80
9167;DHT22;4618;48.818;9.088;2023-02-28T03:30:33;-2.40;1.00
9167;DHT22;4618;48.818;9.088;2023-02-28T03:35:34;-2.40;1.00
9167;DHT22;4618;48.818;9.088;2023-02-28T03:38:16;-2.40;1.00
9167;DHT22;4618;48.818;9.088;2023-02-28T03:40:56;-2.40;1.00
9167;DHT22;4618;48.818;9.088;2023-02-28T03:43:27;-2.40;1.00
9167;DHT22;4618;48.818;9.088;2023-02-28T03:45:54;-2.40;1.00
9167;DHT22;4618;48.818;9.088;2023-02-28T03:48:33;-2.30;1.00
9167;DHT22;4618;48.818;9.088;2023-02-28T03:51:03;-2.30;1.00
9167;DHT22;4618;48.818;9.088;2023-02-28T03:53:39;-2.30;1.00
9167;DHT22;4618;48.818;9.088;2023-02-28T03:56:16;-2.30;1.00
9167;DHT22;4618;48.818;9.088;2023-02-28T04:01:48;-2.20;99.90
9167;DHT22;4618;48.818;9.088;2023-02-28T04:04:15;-2.20;99.90
9167;DHT22;4618;48.818;9.088;2023-02-28T04:06:41;-2.20;99.90
9167;DHT22;4618;48.818;9.088;2023-02-28T04:09:09;-2.20;99.90
9167;DHT22;4618;48.818;9.088;2023-02-28T04:11:40;-2.20;99.90
9167;DHT22;4618;48.818;9.088;2023-02-28T04:14:07;-2.10;99.90
9167;DHT22;4618;48.818;9.088;2023-02-28T04:16:37;-2.10;99.90
9167;DHT22;4618;48.818;9.088;2023-02-28T04:19:04;-2.00;99.90
9167;DHT22;4618;48.818;9.088;2023-02-28T04:21:33;-2.00;99.90
9167;DHT22;4618;48.818;9.088;2023-02-28T04:23:59;-2.00;99.90
9167;DHT22;4618;48.818;9.088;2023-02-28T04:28:56;-2.00;99.90
9167;DHT22;4618;48.818;9.088;2023-02-28T04:31:22;-2.00;99.90
9167;DHT22;4618;48.818;9.088;2023-02-28T04:33:47;-2.00;99.90
9167;DHT22;4618;48.818;9.088;2023-02-28T04:36:13;-1.80;99.90
9167;DHT22;4618;48.818;9.088;2023-02-28T04:38:40;-1.90;99.90
9167;DHT22;4618;48.818;9.088;2023-02-28T04:41:06;-1.90;99.90
9167;DHT22;4618;48.818;9.088;2023-02-28T04:43:32;-1.90;99.90
9167;DHT22;4618;48.818;9.088;2023-02-28T04:46:00;-1.90;99.90
9167;DHT22;4618;48.818;9.088;2023-02-28T04:48:31;-1.80;99.90
9167;DHT22;4618;48.818;9.088;2023-02-28T04:51:01;-1.80;99.90
9167;DHT22;4618;48.818;9.088;2023-02-28T04:53:28;-1.80;99.90
9167;DHT22;4618;48.818;9.088;2023-02-28T04:55:54;-1.70;79.90
9167;DHT22;4618;48.818;9.088;2023-02-28T04:58:20;-1.70;26.10
9167;DHT22;4618;48.818;9.088;2023-02-28T05:00:48;-1.70;94.60
9167;DHT22;4618;48.818;9.088;2023-02-28T05:03:14;-1.80;78.80
9167;DHT22;4618;48.818;9.088;2023-02-28T05:05:39;-1.60;56.90
9167;DHT22;4618;48.818;9.088;2023-02-28T05:08:05;-1.70;1.00
9167;DHT22;4618;48.818;9.088;2023-02-28T05:10:31;-1.60;1.00
9167;DHT22;4618;48.818;9.088;2023-02-28T05:12:57;-1.60;1.00
9167;DHT22;4618;48.818;9.088;2023-02-28T05:15:23;-1.60;30.10
9167;DHT22;4618;48.818;9.088;2023-02-28T05:17:48;-1.70;13.60
9167;DHT22;4618;48.818;9.088;2023-02-28T05:20:14;-1.60;18.70
9167;DHT22;4618;48.818;9.088;2023-02-28T05:22:40;-1.60;1.00
9167;DHT22;4618;48.818;9.088;2023-02-28T05:25:08;-1.60;1.00
9167;DHT22;4618;48.818;9.088;2023-02-28T05:27:34;-1.70;1.00
9167;DHT22;4618;48.818;9.088;2023-02-28T05:29:59;-1.60;1.00
9167;DHT22;4618;48.818;9.088;2023-02-28T05:32:28;-1.60;1.00
9167;DHT22;4618;48.818;9.088;2023-02-28T05:34:53;-1.50;1.00
9167;DHT22;4618;48.818;9.088;2023-02-28T05:37:19;-1.50;1.00
9167;DHT22;4618;48.818;9.088;2023-02-28T05:39:44;-1.50;1.00
9167;DHT22;4618;48.818;9.088;2023-02-28T05:42:10;-1.40;1.00
9167;DHT22;4618;48.818;9.088;2023-02-28T05:44:36;-1.60;1.00
9167;DHT22;4618;48.818;9.088;2023-02-28T05:47:02;-1.50;1.00
9167;DHT22;4618;48.818;9.088;2023-02-28T05:49:27;-1.50;1.00
9167;DHT22;4618;48.818;9.088;2023-02-28T05:51:53;-1.60;1.00
9167;DHT22;4618;48.818;9.088;2023-02-28T05:54:19;-1.50;1.00
9167;DHT22;4618;48.818;9.088;2023-02-28T05:56:44;-1.50;1.00
9167;DHT22;4618;48.818;9.088;2023-02-28T05:59:12;-1.60;1.00
9167;DHT22;4618;48.818;9.088;2023-02-28T06:01:40;-1.60;1.00
9167;DHT22;4618;48.818;9.088;2023-02-28T06:04:09;-1.50;1.00
9167;DHT22;4618;48.818;9.088;2023-02-28T06:06:35;-1.50;1.00
9167;DHT22;4618;48.818;9.088;2023-02-28T06:09:03;-1.50;1.00
9167;DHT22;4618;48.818;9.088;2023-02-28T06:11:28;-1.50;1.00
9167;DHT22;4618;48.818;9.088;2023-02-28T06:13:56;-1.40;1.00
9167;DHT22;4618;48.818;9.088;2023-02-28T06:16:23;-1.50;1.00
9167;DHT22;4618;48.818;9.088;2023-02-28T06:18:49;-1.40;1.00
9167;DHT22;4618;48.818;9.088;2023-02-28T06:21:14;-1.40;1.00
9167;DHT22;4618;48.818;9.088;2023-02-28T06:23:40;-1.40;1.00
9167;DHT22;4618;48.818;9.088;2023-02-28T06:26:05;-1.30;1.00
9167;DHT22;4618;48.818;9.088;2023-02-28T06:28:31;-1.30;1.00
9167;DHT22;4618;48.818;9.088;2023-02-28T06:30:57;-1.40;1.00
9167;DHT22;4618;48.818;9.088;2023-02-28T06:33:22;-1.40;1.00
9167;DHT22;4618;48.818;9.088;2023-02-28T06:35:52;-1.30;1.00
9167;DHT22;4618;48.818;9.088;2023-02-28T06:38:18;-1.30;1.00
9167;DHT22;4618;48.818;9.088;2023-02-28T06:40:44;-1.30;1.00
9167;DHT22;4618;48.818;9.088;2023-02-28T06:43:10;-1.30;1.00
9167;DHT22;4618;48.818;9.088;2023-02-28T06:45:42;-1.30;1.00
9167;DHT22;4618;48.818;9.088;2023-02-28T06:48:08;-1.30;1.00
9167;DHT22;4618;48.818;9.088;2023-02-28T06:50:34;-1.30;1.00
9167;DHT22;4618;48.818;9.088;2023-02-28T06:52:59;-1.20;1.00
9167;DHT22;4618;48.818;9.088;2023-02-28T06:55:25;-1.10;1.00
9167;DHT22;4618;48.818;9.088;2023-02-28T06:57:51;-1.10;1.00
9167;DHT22;4618;48.818;9.088;2023-02-28T07:00:16;-1.00;1.00
9167;DHT22;4618;48.818;9.088;2023-02-28T07:02:42;-1.10;1.00
9167;DHT22;4618;48.818;9.088;2023-02-28T07:05:08;-1.10;1.00
9167;DHT22;4618;48.818;9.088;2023-02-28T07:07:33;-1.00;1.00
9167;DHT22;4618;48.818;9.088;2023-02-28T07:10:02;-1.00;1.00
9167;DHT22;4618;48.818;9.088;2023-02-28T07:12:27;-1.00;1.00
9167;DHT22;4618;48.818;9.088;2023-02-28T07:14:53;-1.00;1.00
9167;DHT22;4618;48.818;9.088;2023-02-28T07:17:21;-1.00;1.00
9167;DHT22;4618;48.818;9.088;2023-02-28T07:19:46;-1.00;1.00
9167;DHT22;4618;48.818;9.088;2023-02-28T07:22:12;-1.00;1.00
9167;DHT22;4618;48.818;9.088;2023-02-28T07:24:37;-0.90;99.90
9167;DHT22;4618;48.818;9.088;2023-02-28T07:27:03;-0.90;99.90
9167;DHT22;4618;48.818;9.088;2023-02-28T07:29:29;-0.90;99.90
9167;DHT22;4618;48.818;9.088;2023-02-28T07:31:55;-0.80;99.90
9167;DHT22;4618;48.818;9.088;2023-02-28T07:34:22;-0.70;99.90
9167;DHT22;4618;48.818;9.088;2023-02-28T07:36:47;-0.80;99.90
9167;DHT22;4618;48.818;9.088;2023-02-28T07:39:13;-0.70;99.90
9167;DHT22;4618;48.818;9.088;2023-02-28T07:41:38;-0.70;99.90
9167;DHT22;4618;48.818;9.088;2023-02-28T07:44:10;-0.70;99.90
9167;DHT22;4618;48.818;9.088;2023-02-28T07:46:35;-0.70;99.90
9167;DHT22;4618;48.818;9.088;2023-02-28T07:49:01;-0.80;99.90
9167;DHT22;4618;48.818;9.088;2023-02-28T07:51:28;-0.70;99.90
9167;DHT22;4618;48.818;9.088;2023-02-28T07:53:54;-0.70;99.90
9167;DHT22;4618;48.818;9.088;2023-02-28T07:56:20;-0.60;99.90
9167;DHT22;4618;48.818;9.088;2023-02-28T07:58:45;-0.70;99.90
9167;DHT22;4618;48.818;9.088;2023-02-28T08:01:11;-0.60;99.90
9167;DHT22;4618;48.818;9.088;2023-02-28T08:03:38;-0.60;99.90
9167;DHT22;4618;48.818;9.088;2023-02-28T08:06:06;-0.60;99.90
9167;DHT22;4618;48.818;9.088;2023-02-28T08:08:32;-0.50;99.90
9167;DHT22;4618;48.818;9.088;2023-02-28T08:11:02;-0.50;99.90
9167;DHT22;4618;48.818;9.088;2023-02-28T08:13:29;-0.40;99.90
9167;DHT22;4618;48.818;9.088;2023-02-28T08:15:55;-0.30;99.90
9167;DHT22;4618;48.818;9.088;2023-02-28T08:18:22;-0.40;99.90
9167;DHT22;4618;48.818;9.088;2023-02-28T08:20:47;-0.30;99.90
9167;DHT22;4618;48.818;9.088;2023-02-28T08:23:13;-0.30;99.90
9167;DHT22;4618;48.818;9.088;2023-02-28T08:25:39;-0.20;99.90
9167;DHT22;4618;48.818;9.088;2023-02-28T08:28:05;-0.20;99.90
9167;DHT22;4618;48.818;9.088;2023-02-28T08:30:30;-0.10;99.90
9167;DHT22;4618;48.818;9.088;2023-02-28T08:32:56;-0.10;99.90
9167;DHT22;4618;48.818;9.088;2023-02-28T08:35:22;0.00;99.90
9167;DHT22;4618;48.818;9.088;2023-02-28T08:37:48;0.00;99.90
9167;DHT22;4618;48.818;9.088;2023-02-28T08:40:14;0.00;99.90
9167;DHT22;4618;48.818;9.088;2023-02-28T08:42:47;0.10;99.90
9167;DHT22;4618;48.818;9.088;2023-02-28T08:45:13;0.10;99.90
9167;DHT22;4618;48.818;9.088;2023-02-28T08:47:40;0.00;99.90
9167;DHT22;4618;48.818;9.088;2023-02-28T08:50:06;0.20;99.90
9167;DHT22;4618;48.818;9.088;2023-02-28T08:52:32;0.10;99.90
9167;DHT22;4618;48.818;9.088;2023-02-28T08:54:58;0.10;99.90
9167;DHT22;4618;48.818;9.088;2023-02-28T08:57:24;0.10;99.90
9167;DHT22;4618;48.818;9.088;2023-02-28T08:59:51;0.30;99.90
9167;DHT22;4618;48.818;9.088;2023-02-28T09:02:17;0.40;99.90
9167;DHT22;4618;48.818;9.088;2023-02-28T09:04:43;0.40;99.90
9167;DHT22;4618;48.818;9.088;2023-02-28T09:07:11;0.50;99.90
9167;DHT22;4618;48.818;9.088;2023-02-28T09:09:36;0.40;99.90
9167;DHT22;4618;48.818;9.088;2023-02-28T09:12:02;0.40;99.90
9167;DHT22;4618;48.818;9.088;2023-02-28T09:14:28;0.60;99.90
9167;DHT22;4618;48.818;9.088;2023-02-28T09:16:53;0.50;99.90
9167;DHT22;4618;48.818;9.088;2023-02-28T09:19:20;0.60;99.90
9167;DHT22;4618;48.818;9.088;2023-02-28T09:21:45;0.70;99.90
9167;DHT22;4618;48.818;9.088;2023-02-28T09:24:11;0.70;99.90
9167;DHT22;4618;48.818;9.088;2023-02-28T09:26:39;0.70;99.90
9167;DHT22;4618;48.818;9.088;2023-02-28T09:29:05;0.90;99.90
9167;DHT22;4618;48.818;9.088;2023-02-28T09:31:32;1.10;99.90
9167;DHT22;4618;48.818;9.088;2023-02-28T09:33:58;1.20;99.90
9167;DHT22;4618;48.818;9.088;2023-02-28T09:36:26;1.30;98.00
9167;DHT22;4618;48.818;9.088;2023-02-28T09:38:52;1.40;94.80
9167;DHT22;4618;48.818;9.088;2023-02-28T09:41:21;1.50;90.60
9167;DHT22;4618;48.818;9.088;2023-02-28T09:43:50;1.50;73.90
9167;DHT22;4618;48.818;9.088;2023-02-28T09:48:52;1.60;67.90
9167;DHT22;4618;48.818;9.088;2023-02-28T09:51:28;1.60;60.10
9167;DHT22;4618;48.818;9.088;2023-02-28T09:53:55;1.60;62.10
9167;DHT22;4618;48.818;9.088;2023-02-28T09:56:25;1.60;56.20
9167;DHT22;4618;48.818;9.088;2023-02-28T10:10:33;1.50;48.40
9167;DHT22;4618;48.818;9.088;2023-02-28T10:13:03;1.50;46.20
9167;DHT22;4618;48.818;9.088;2023-02-28T10:15:31;1.70;38.00
9167;DHT22;4618;48.818;9.088;2023-02-28T10:18:03;1.90;30.60
9167;DHT22;4618;48.818;9.088;2023-02-28T10:20:33;2.10;25.90
9167;DHT22;4618;48.818;9.088;2023-02-28T10:23:20;2.40;15.40
9167;DHT22;4618;48.818;9.088;2023-02-28T10:25:54;2.40;19.10
9167;DHT22;4618;48.818;9.088;2023-02-28T10:28:21;2.40;14.50
9167;DHT22;4618;48.818;9.088;2023-02-28T10:30:52;2.60;9.00
9167;DHT22;4618;48.818;9.088;2023-02-28T10:33:33;3.00;1.20
9167;DHT22;4618;48.818;9.088;2023-02-28T10:36:03;3.10;1.00
9167;DHT22;4618;48.818;9.088;2023-02-28T10:38:38;3.30;1.00
9167;DHT22;4618;48.818;9.088;2023-02-28T10:41:15;3.60;1.00
9167;DHT22;4618;48.818;9.088;2023-02-28T10:43:42;3.60;1.00
9167;DHT22;4618;48.818;9.088;2023-02-28T10:48:43;3.40;1.00
9167;DHT22;4618;48.818;9.088;2023-02-28T10:51:12;3.10;1.00
9167;DHT22;4618;48.818;9.088;2023-02-28T10:53:49;3.40;1.00
9167;DHT22;4618;48.818;9.088;2023-02-28T10:56:26;3.60;1.00
9167;DHT22;4618;48.818;9.088;2023-02-28T11:03:55;5.10;1.00
9167;DHT22;4618;48.818;9.088;2023-02-28T11:06:32;5.30;1.00
9167;DHT22;4618;48.818;9.088;2023-02-28T11:09:06;4.80;1.00
9167;DHT22;4618;48.818;9.088;2023-02-28T11:11:45;4.90;1.00
9167;DHT22;4618;48.818;9.088;2023-02-28T11:14:35;4.80;1.00
9167;DHT22;4618;48.818;9.088;2023-02-28T11:17:22;4.60;1.00
9167;DHT22;4618;48.818;9.088;2023-02-28T11:19:55;4.40;1.00
9167;DHT22;4618;48.818;9.088;2023-02-28T11:22:27;4.10;1.00
9167;DHT22;4618;48.818;9.088;2023-02-28T11:24:56;4.20;1.00
9167;DHT22;4618;48.818;9.088;2023-02-28T11:27:39;4.00;1.00
9167;DHT22;4618;48.818;9.088;2023-02-28T11:30:26;4.20;1.00
9167;DHT22;4618;48.818;9.088;2023-02-28T11:32:52;4.60;1.00
9167;DHT22;4618;48.818;9.088;2023-02-28T11:35:41;4.90;1.00
9167;DHT22;4618;48.818;9.088;2023-02-28T11:38:12;5.20;1.00
9167;DHT22;4618;48.818;9.088;2023-02-28T11:40:56;5.50;1.00
9167;DHT22;4618;48.818;9.088;2023-02-28T11:52:14;8.30;1.00
9167;DHT22;4618;48.818;9.088;2023-02-28T12:02:55;13.10;1.00
9167;DHT22;4618;48.818;9.088;2023-02-28T12:11:12;13.70;1.00
9167;DHT22;4618;48.818;9.088;2023-02-28T12:14:12;14.10;1.00
9167;DHT22;4618;48.818;9.088;2023-02-28T12:28:26;14.60;1.00
9167;DHT22;4618;48.818;9.088;2023-02-28T12:31:20;14.60;1.00
9167;DHT22;4618;48.818;9.088;2023-02-28T12:34:01;14.90;1.00
9167;DHT22;4618;48.818;9.088;2023-02-28T12:36:28;14.70;1.00
9167;DHT22;4618;48.818;9.088;2023-02-28T12:38:59;14.70;1.00
9167;DHT22;4618;48.818;9.088;2023-02-28T12:41:33;15.00;1.00
9167;DHT22;4618;48.818;9.088;2023-02-28T12:44:05;14.80;1.00
9167;DHT22;4618;48.818;9.088;2023-02-28T12:46:35;14.20;1.00
9167;DHT22;4618;48.818;9.088;2023-02-28T12:49:08;13.10;1.00
9167;DHT22;4618;48.818;9.088;2023-02-28T12:51:35;13.30;1.00
9167;DHT22;4618;48.818;9.088;2023-02-28T12:54:29;13.80;1.00
9167;DHT22;4618;48.818;9.088;2023-02-28T12:59:50;13.50;1.00
9167;DHT22;4618;48.818;9.088;2023-02-28T13:05:44;11.50;1.00
9167;DHT22;4618;48.818;9.088;2023-02-28T13:11:01;11.30;1.00
9167;DHT22;4618;48.818;9.088;2023-02-28T13:13:28;12.10;1.00
9167;DHT22;4618;48.818;9.088;2023-02-28T13:16:06;12.00;1.00
9167;DHT22;4618;48.818;9.088;2023-02-28T13:18:43;11.60;1.00
9167;DHT22;4618;48.818;9.088;2023-02-28T13:21:22;11.70;1.00
9167;DHT22;4618;48.818;9.088;2023-02-28T13:26:22;11.60;1.00
9167;DHT22;4618;48.818;9.088;2023-02-28T13:31:16;12.40;1.00
9167;DHT22;4618;48.818;9.088;2023-02-28T13:38:42;13.70;1.00
9167;DHT22;4618;48.818;9.088;2023-02-28T13:49:29;14.40;1.00
9167;DHT22;4618;48.818;9.088;2023-02-28T14:01:02;13.80;1.00
9167;DHT22;4618;48.818;9.088;2023-02-28T14:09:06;14.50;1.00
9167;DHT22;4618;48.818;9.088;2023-02-28T14:11:41;15.10;1.00
9167;DHT22;4618;48.818;9.088;2023-02-28T14:14:09;13.90;1.00
9167;DHT22;4618;48.818;9.088;2023-02-28T14:16:55;13.10;1.00
9167;DHT22;4618;48.818;9.088;2023-02-28T14:19:27;12.70;1.00
9167;DHT22;4618;48.818;9.088;2023-02-28T14:25:23;14.30;1.00
9167;DHT22;4618;48.818;9.088;2023-02-28T14:31:09;14.80;1.00
9167;DHT22;4618;48.818;9.088;2023-02-28T14:36:32;15.30;1.00
9167;DHT22;4618;48.818;9.088;2023-02-28T14:39:04;15.10;1.00
9167;DHT22;4618;48.818;9.088;2023-02-28T14:41:35;14.20;1.00
9167;DHT22;4618;48.818;9.088;2023-02-28T14:44:19;13.60;1.00
9167;DHT22;4618;48.818;9.088;2023-02-28T14:46:48;13.20;1.00
9167;DHT22;4618;48.818;9.088;2023-02-28T14:49:36;13.10;1.00
9167;DHT22;4618;48.818;9.088;2023-02-28T14:54:35;13.50;1.00
9167;DHT22;4618;48.818;9.088;2023-02-28T14:57:02;13.20;1.00
9167;DHT22;4618;48.818;9.088;2023-02-28T14:59:33;12.90;1.00
9167;DHT22;4618;48.818;9.088;2023-02-28T15:04:42;12.40;1.00
9167;DHT22;4618;48.818;9.088;2023-02-28T15:07:10;12.70;1.00
9167;DHT22;4618;48.818;9.088;2023-02-28T15:09:36;11.90;1.00
9167;DHT22;4618;48.818;9.088;2023-02-28T15:12:01;11.60;1.00
9167;DHT22;4618;48.818;9.088;2023-02-28T15:14:27;11.60;1.00
9167;DHT22;4618;48.818;9.088;2023-02-28T15:17:06;11.10;1.00
9167;DHT22;4618;48.818;9.088;2023-02-28T15:19:36;11.00;1.00
9167;DHT22;4618;48.818;9.088;2023-02-28T15:22:06;11.40;1.00
9167;DHT22;4618;48.818;9.088;2023-02-28T15:24:52;11.60;1.00
9167;DHT22;4618;48.818;9.088;2023-02-28T15:27:22;11.50;1.00
9167;DHT22;4618;48.818;9.088;2023-02-28T15:29:53;11.00;1.00
9167;DHT22;4618;48.818;9.088;2023-02-28T15:32:30;10.30;1.00
9167;DHT22;4618;48.818;9.088;2023-02-28T15:34:58;10.50;1.00
9167;DHT22;4618;48.818;9.088;2023-02-28T15:40:12;10.50;1.00
9167;DHT22;4618;48.818;9.088;2023-02-28T15:42:38;10.30;1.00
9167;DHT22;4618;48.818;9.088;2023-02-28T15:45:04;10.00;1.00
9167;DHT22;4618;48.818;9.088;2023-02-28T15:47:31;9.90;1.00
9167;DHT22;4618;48.818;9.088;2023-02-28T15:50:02;9.90;1.00
9167;DHT22;4618;48.818;9.088;2023-02-28T15:52:43;9.70;1.00
9167;DHT22;4618;48.818;9.088;2023-02-28T15:55:24;9.70;1.00
9167;DHT22;4618;48.818;9.088;2023-02-28T15:57:54;9.80;1.00
9167;DHT22;4618;48.818;9.088;2023-02-28T16:00:22;9.70;1.00
9167;DHT22;4618;48.818;9.088;2023-02-28T16:02:48;9.50;1.00
9167;DHT22;4618;48.818;9.088;2023-02-28T16:05:25;9.40;1.00
9167;DHT22;4618;48.818;9.088;2023-02-28T16:07:57;9.10;1.00
9167;DHT22;4618;48.818;9.088;2023-02-28T16:10:25;8.60;1.00
9167;DHT22;4618;48.818;9.088;2023-02-28T16:12:53;8.30;1.00
9167;DHT22;4618;48.818;9.088;2023-02-28T16:15:28;8.30;1.00
9167;DHT22;4618;48.818;9.088;2023-02-28T16:17:55;8.00;1.00
9167;DHT22;4618;48.818;9.088;2023-02-28T16:20:23;7.70;1.00
9167;DHT22;4618;48.818;9.088;2023-02-28T16:22:49;7.20;1.00
9167;DHT22;4618;48.818;9.088;2023-02-28T16:25:16;6.90;1.00
9167;DHT22;4618;48.818;9.088;2023-02-28T16:27:44;6.70;1.00
9167;DHT22;4618;48.818;9.088;2023-02-28T16:30:21;6.60;1.00
9167;DHT22;4618;48.818;9.088;2023-02-28T16:32:48;6.50;1.00
9167;DHT22;4618;48.818;9.088;2023-02-28T16:35:14;6.40;1.00
9167;DHT22;4618;48.818;9.088;2023-02-28T16:37:40;6.40;1.00
9167;DHT22;4618;48.818;9.088;2023-02-28T16:40:14;6.20;1.00
9167;DHT22;4618;48.818;9.088;2023-02-28T16:42:42;6.10;1.00
9167;DHT22;4618;48.818;9.088;2023-02-28T16:45:16;6.00;1.00
9167;DHT22;4618;48.818;9.088;2023-02-28T16:47:42;5.70;1.00
9167;DHT22;4618;48.818;9.088;2023-02-28T16:50:17;5.70;1.00
9167;DHT22;4618;48.818;9.088;2023-02-28T16:52:43;5.40;1.00
9167;DHT22;4618;48.818;9.088;2023-02-28T16:55:09;5.20;1.00
9167;DHT22;4618;48.818;9.088;2023-02-28T16:57:34;4.90;1.00
9167;DHT22;4618;48.818;9.088;2023-02-28T17:00:00;4.50;1.00
9167;DHT22;4618;48.818;9.088;2023-02-28T17:02:25;4.20;1.00
9167;DHT22;4618;48.818;9.088;2023-02-28T17:04:51;3.90;1.00
9167;DHT22;4618;48.818;9.088;2023-02-28T17:07:17;3.70;1.00
9167;DHT22;4618;48.818;9.088;2023-02-28T17:09:43;3.50;1.00
9167;DHT22;4618;48.818;9.088;2023-02-28T17:12:09;3.30;1.00
9167;DHT22;4618;48.818;9.088;2023-02-28T17:14:36;3.20;1.00
9167;DHT22;4618;48.818;9.088;2023-02-28T17:17:02;3.10;1.00
9167;DHT22;4618;48.818;9.088;2023-02-28T17:19:27;3.00;1.00
9167;DHT22;4618;48.818;9.088;2023-02-28T17:21:53;2.80;1.00
9167;DHT22;4618;48.818;9.088;2023-02-28T17:24:19;2.60;1.00
9167;DHT22;4618;48.818;9.088;2023-02-28T17:26:45;2.50;1.00
9167;DHT22;4618;48.818;9.088;2023-02-28T17:29:17;2.30;1.00
9167;DHT22;4618;48.818;9.088;2023-02-28T17:31:43;2.30;1.00
9167;DHT22;4618;48.818;9.088;2023-02-28T17:34:09;2.20;1.00
9167;DHT22;4618;48.818;9.088;2023-02-28T17:36:35;2.10;1.00
9167;DHT22;4618;48.818;9.088;2023-02-28T17:39:03;2.00;1.00
9167;DHT22;4618;48.818;9.088;2023-02-28T17:41:28;2.00;1.00
9167;DHT22;4618;48.818;9.088;2023-02-28T17:43:56;1.90;1.00
9167;DHT22;4618;48.818;9.088;2023-02-28T17:46:23;1.80;1.00
9167;DHT22;4618;48.818;9.088;2023-02-28T17:48:50;1.70;7.50
9167;DHT22;4618;48.818;9.088;2023-02-28T17:51:17;1.60;19.40
9167;DHT22;4618;48.818;9.088;2023-02-28T17:53:43;1.50;20.80
9167;DHT22;4618;48.818;9.088;2023-02-28T17:56:12;1.50;24.70
9167;DHT22;4618;48.818;9.088;2023-02-28T17:58:39;1.40;30.50
9167;DHT22;4618;48.818;9.088;2023-02-28T18:01:05;1.50;29.50
9167;DHT22;4618;48.818;9.088;2023-02-28T18:03:30;1.40;32.10
9167;DHT22;4618;48.818;9.088;2023-02-28T18:05:57;1.30;31.20
9167;DHT22;4618;48.818;9.088;2023-02-28T18:08:23;1.20;31.70
9167;DHT22;4618;48.818;9.088;2023-02-28T18:10:49;1.20;37.70
9167;DHT22;4618;48.818;9.088;2023-02-28T18:13:15;1.10;42.10
9167;DHT22;4618;48.818;9.088;2023-02-28T18:15:40;1.00;70.30
9167;DHT22;4618;48.818;9.088;2023-02-28T18:18:06;0.90;56.40
9167;DHT22;4618;48.818;9.088;2023-02-28T18:20:33;0.80;75.80
9167;DHT22;4618;48.818;9.088;2023-02-28T18:22:59;0.80;76.90
9167;DHT22;4618;48.818;9.088;2023-02-28T18:25:24;0.90;79.00
9167;DHT22;4618;48.818;9.088;2023-02-28T18:27:50;0.80;92.50
9167;DHT22;4618;48.818;9.088;2023-02-28T18:30:23;0.80;88.10
9167;DHT22;4618;48.818;9.088;2023-02-28T18:32:49;0.80;90.00
9167;DHT22;4618;48.818;9.088;2023-02-28T18:35:15;0.80;90.40
9167;DHT22;4618;48.818;9.088;2023-02-28T18:37:40;0.70;94.40
9167;DHT22;4618;48.818;9.088;2023-02-28T18:40:06;0.60;98.00
9167;DHT22;4618;48.818;9.088;2023-02-28T18:42:32;0.40;99.90
9167;DHT22;4618;48.818;9.088;2023-02-28T18:44:57;0.30;99.90
9167;DHT22;4618;48.818;9.088;2023-02-28T18:47:23;0.20;99.90
9167;DHT22;4618;48.818;9.088;2023-02-28T18:49:49;0.10;99.90
9167;DHT22;4618;48.818;9.088;2023-02-28T18:52:14;0.00;99.90
9167;DHT22;4618;48.818;9.088;2023-02-28T18:54:40;-0.10;99.90
9167;DHT22;4618;48.818;9.088;2023-02-28T18:57:05;0.00;99.90
9167;DHT22;4618;48.818;9.088;2023-02-28T18:59:31;0.00;99.90
9167;DHT22;4618;48.818;9.088;2023-02-28T19:01:56;0.00;99.90
9167;DHT22;4618;48.818;9.088;2023-02-28T19:04:23;-0.10;99.90